sensor_id;sensor_type;location;lat;lon;timestamp;temperature;humidity
9723;DHT22;4900;49.306;8.500;2022-07-03T00:01:24;21.93;54.90
9723;DHT22;4900;49.306;8.500;2022-07-03T00:04:27;21.91;55.00
9723;DHT22;4900;49.306;8.500;2022-07-03T00:07:31;21.86;54.99
9723;DHT22;4900;49.306;8.500;2022-07-03T00:10:35;21.79;55.22
9723;DHT22;4900;49.306;8.500;2022-07-03T00:13:38;21.78;55.34
9723;DHT22;4900;49.306;8.500;2022-07-03T00:16:41;21.78;55.24
9723;DHT22;4900;49.306;8.500;2022-07-03T00:19:45;21.74;55.45
9723;DHT22;4900;49.306;8.500;2022-07-03T00:22:49;21.71;55.36
9723;DHT22;4900;49.306;8.500;2022-07-03T00:25:53;21.68;55.47
9723;DHT22;4900;49.306;8.500;2022-07-03T00:29:00;21.69;55.52
9723;DHT22;4900;49.306;8.500;2022-07-03T00:32:06;21.68;55.59
9723;DHT22;4900;49.306;8.500;2022-07-03T00:35:15;21.64;55.59
9723;DHT22;4900;49.306;8.500;2022-07-03T00:38:21;21.62;55.50
9723;DHT22;4900;49.306;8.500;2022-07-03T00:41:32;21.55;55.55
9723;DHT22;4900;49.306;8.500;2022-07-03T00:44:50;21.55;55.76
9723;DHT22;4900;49.306;8.500;2022-07-03T00:47:55;21.51;55.84
9723;DHT22;4900;49.306;8.500;2022-07-03T00:50:59;21.50;55.94
9723;DHT22;4900;49.306;8.500;2022-07-03T00:54:03;21.44;56.12
9723;DHT22;4900;49.306;8.500;2022-07-03T00:57:07;21.43;56.20
9723;DHT22;4900;49.306;8.500;2022-07-03T01:00:16;21.38;56.43
9723;DHT22;4900;49.306;8.500;2022-07-03T01:03:21;21.34;56.33
9723;DHT22;4900;49.306;8.500;2022-07-03T01:06:33;21.30;56.48
9723;DHT22;4900;49.306;8.500;2022-07-03T01:13:06;21.23;56.66
9723;DHT22;4900;49.306;8.500;2022-07-03T01:16:20;21.23;56.70
9723;DHT22;4900;49.306;8.500;2022-07-03T01:22:42;21.16;57.05
9723;DHT22;4900;49.306;8.500;2022-07-03T01:25:47;21.11;57.16
9723;DHT22;4900;49.306;8.500;2022-07-03T01:28:51;21.09;57.18
9723;DHT22;4900;49.306;8.500;2022-07-03T01:31:55;21.06;57.32
9723;DHT22;4900;49.306;8.500;2022-07-03T01:35:01;21.03;57.34
9723;DHT22;4900;49.306;8.500;2022-07-03T01:38:09;21.03;57.20
9723;DHT22;4900;49.306;8.500;2022-07-03T01:41:12;20.99;57.16
9723;DHT22;4900;49.306;8.500;2022-07-03T01:44:16;20.98;57.22
9723;DHT22;4900;49.306;8.500;2022-07-03T01:47:20;20.96;57.30
9723;DHT22;4900;49.306;8.500;2022-07-03T01:50:25;20.91;57.30
9723;DHT22;4900;49.306;8.500;2022-07-03T01:53:30;20.88;57.39
9723;DHT22;4900;49.306;8.500;2022-07-03T01:56:34;20.86;57.41
9723;DHT22;4900;49.306;8.500;2022-07-03T01:59:38;20.82;57.48
9723;DHT22;4900;49.306;8.500;2022-07-03T02:03:00;20.78;57.55
9723;DHT22;4900;49.306;8.500;2022-07-03T02:06:06;20.72;57.79
9723;DHT22;4900;49.306;8.500;2022-07-03T02:09:11;20.72;57.80
9723;DHT22;4900;49.306;8.500;2022-07-03T02:12:18;20.67;57.74
9723;DHT22;4900;49.306;8.500;2022-07-03T02:15:31;20.59;57.97
9723;DHT22;4900;49.306;8.500;2022-07-03T02:18:36;20.57;58.25
9723;DHT22;4900;49.306;8.500;2022-07-03T02:21:51;20.51;58.30
9723;DHT22;4900;49.306;8.500;2022-07-03T02:25:07;20.48;58.62
9723;DHT22;4900;49.306;8.500;2022-07-03T02:32:03;20.40;59.17
9723;DHT22;4900;49.306;8.500;2022-07-03T02:35:11;20.37;59.54
9723;DHT22;4900;49.306;8.500;2022-07-03T02:38:19;20.33;60.10
9723;DHT22;4900;49.306;8.500;2022-07-03T02:41:29;20.31;60.30
9723;DHT22;4900;49.306;8.500;2022-07-03T02:44:44;20.31;60.46
9723;DHT22;4900;49.306;8.500;2022-07-03T02:47:57;20.29;60.60
9723;DHT22;4900;49.306;8.500;2022-07-03T02:51:06;20.27;60.78
9723;DHT22;4900;49.306;8.500;2022-07-03T02:54:14;20.21;61.21
9723;DHT22;4900;49.306;8.500;2022-07-03T02:57:18;20.20;61.35
9723;DHT22;4900;49.306;8.500;2022-07-03T03:00:33;20.20;61.64
9723;DHT22;4900;49.306;8.500;2022-07-03T03:03:39;20.14;61.76
9723;DHT22;4900;49.306;8.500;2022-07-03T03:06:54;20.16;61.84
9723;DHT22;4900;49.306;8.500;2022-07-03T03:09:58;20.13;61.85
9723;DHT22;4900;49.306;8.500;2022-07-03T03:13:09;20.10;61.84
9723;DHT22;4900;49.306;8.500;2022-07-03T03:16:14;20.08;61.90
9723;DHT22;4900;49.306;8.500;2022-07-03T03:19:22;20.05;61.99
9723;DHT22;4900;49.306;8.500;2022-07-03T03:25:55;19.93;62.55
9723;DHT22;4900;49.306;8.500;2022-07-03T03:28:59;19.89;62.64
9723;DHT22;4900;49.306;8.500;2022-07-03T03:32:03;19.85;62.71
9723;DHT22;4900;49.306;8.500;2022-07-03T03:35:08;19.79;62.98
9723;DHT22;4900;49.306;8.500;2022-07-03T03:38:12;19.78;62.99
9723;DHT22;4900;49.306;8.500;2022-07-03T03:41:15;19.78;63.11
9723;DHT22;4900;49.306;8.500;2022-07-03T03:44:18;19.75;63.05
9723;DHT22;4900;49.306;8.500;2022-07-03T03:47:21;19.74;63.19
9723;DHT22;4900;49.306;8.500;2022-07-03T03:50:25;19.68;63.17
9723;DHT22;4900;49.306;8.500;2022-07-03T03:53:29;19.71;63.15
9723;DHT22;4900;49.306;8.500;2022-07-03T03:56:33;19.69;63.01
9723;DHT22;4900;49.306;8.500;2022-07-03T03:59:35;19.69;63.10
9723;DHT22;4900;49.306;8.500;2022-07-03T04:02:39;19.71;63.11
9723;DHT22;4900;49.306;8.500;2022-07-03T04:05:42;19.71;62.98
9723;DHT22;4900;49.306;8.500;2022-07-03T04:08:45;19.74;62.92
9723;DHT22;4900;49.306;8.500;2022-07-03T04:11:48;19.75;63.09
9723;DHT22;4900;49.306;8.500;2022-07-03T04:14:51;19.74;63.09
9723;DHT22;4900;49.306;8.500;2022-07-03T04:17:55;19.76;62.92
9723;DHT22;4900;49.306;8.500;2022-07-03T04:20:58;19.79;62.92
9723;DHT22;4900;49.306;8.500;2022-07-03T04:24:01;19.81;62.86
9723;DHT22;4900;49.306;8.500;2022-07-03T04:27:05;19.85;62.87
9723;DHT22;4900;49.306;8.500;2022-07-03T04:30:09;19.89;62.84
9723;DHT22;4900;49.306;8.500;2022-07-03T04:33:13;19.90;63.03
9723;DHT22;4900;49.306;8.500;2022-07-03T04:36:17;19.95;63.31
9723;DHT22;4900;49.306;8.500;2022-07-03T04:39:20;19.96;63.33
9723;DHT22;4900;49.306;8.500;2022-07-03T04:42:23;19.99;63.74
9723;DHT22;4900;49.306;8.500;2022-07-03T04:45:27;20.01;64.11
9723;DHT22;4900;49.306;8.500;2022-07-03T04:48:30;20.06;64.59
9723;DHT22;4900;49.306;8.500;2022-07-03T04:51:33;20.12;64.82
9723;DHT22;4900;49.306;8.500;2022-07-03T04:54:37;20.16;64.69
9723;DHT22;4900;49.306;8.500;2022-07-03T04:57:40;20.20;64.87
9723;DHT22;4900;49.306;8.500;2022-07-03T05:00:44;20.30;64.69
9723;DHT22;4900;49.306;8.500;2022-07-03T05:03:47;20.33;64.69
9723;DHT22;4900;49.306;8.500;2022-07-03T05:06:51;20.36;64.67
9723;DHT22;4900;49.306;8.500;2022-07-03T05:09:54;20.43;64.55
9723;DHT22;4900;49.306;8.500;2022-07-03T05:12:57;20.47;64.46
9723;DHT22;4900;49.306;8.500;2022-07-03T05:16:01;20.47;64.52
9723;DHT22;4900;49.306;8.500;2022-07-03T05:19:04;20.52;64.55
9723;DHT22;4900;49.306;8.500;2022-07-03T05:22:07;20.59;64.55
9723;DHT22;4900;49.306;8.500;2022-07-03T05:25:11;20.65;64.56
9723;DHT22;4900;49.306;8.500;2022-07-03T05:28:15;20.71;64.39
9723;DHT22;4900;49.306;8.500;2022-07-03T05:31:18;20.82;64.30
9723;DHT22;4900;49.306;8.500;2022-07-03T05:34:21;20.85;64.42
9723;DHT22;4900;49.306;8.500;2022-07-03T05:37:25;20.92;64.41
9723;DHT22;4900;49.306;8.500;2022-07-03T05:40:28;20.92;64.50
9723;DHT22;4900;49.306;8.500;2022-07-03T05:43:32;20.99;64.71
9723;DHT22;4900;49.306;8.500;2022-07-03T05:46:35;21.11;64.94
9723;DHT22;4900;49.306;8.500;2022-07-03T05:49:38;21.24;64.73
9723;DHT22;4900;49.306;8.500;2022-07-03T05:52:41;21.37;64.30
9723;DHT22;4900;49.306;8.500;2022-07-03T05:55:45;21.53;64.12
9723;DHT22;4900;49.306;8.500;2022-07-03T05:58:49;21.64;63.77
9723;DHT22;4900;49.306;8.500;2022-07-03T06:01:52;22.00;63.00
9723;DHT22;4900;49.306;8.500;2022-07-03T06:04:55;22.54;61.35
9723;DHT22;4900;49.306;8.500;2022-07-03T06:07:58;23.55;58.66
9723;DHT22;4900;49.306;8.500;2022-07-03T06:11:02;24.43;56.32
9723;DHT22;4900;49.306;8.500;2022-07-03T06:14:05;25.12;54.30
9723;DHT22;4900;49.306;8.500;2022-07-03T06:17:08;25.69;52.73
9723;DHT22;4900;49.306;8.500;2022-07-03T06:20:12;26.37;50.72
9723;DHT22;4900;49.306;8.500;2022-07-03T06:23:16;26.75;49.35
9723;DHT22;4900;49.306;8.500;2022-07-03T06:26:19;27.24;47.92
9723;DHT22;4900;49.306;8.500;2022-07-03T06:29:22;27.99;46.58
9723;DHT22;4900;49.306;8.500;2022-07-03T06:32:26;28.29;45.68
9723;DHT22;4900;49.306;8.500;2022-07-03T06:35:28;28.71;44.67
9723;DHT22;4900;49.306;8.500;2022-07-03T06:38:32;29.00;43.78
9723;DHT22;4900;49.306;8.500;2022-07-03T06:41:35;29.34;43.04
9723;DHT22;4900;49.306;8.500;2022-07-03T06:44:38;29.73;42.07
9723;DHT22;4900;49.306;8.500;2022-07-03T06:47:42;30.05;41.52
9723;DHT22;4900;49.306;8.500;2022-07-03T06:50:48;30.61;40.67
9723;DHT22;4900;49.306;8.500;2022-07-03T06:53:52;30.61;40.60
9723;DHT22;4900;49.306;8.500;2022-07-03T06:56:54;30.99;39.81
9723;DHT22;4900;49.306;8.500;2022-07-03T06:59:58;30.92;39.65
9723;DHT22;4900;49.306;8.500;2022-07-03T07:03:01;31.47;38.87
9723;DHT22;4900;49.306;8.500;2022-07-03T07:06:04;31.86;37.96
9723;DHT22;4900;49.306;8.500;2022-07-03T07:09:07;31.58;38.10
9723;DHT22;4900;49.306;8.500;2022-07-03T07:12:11;32.20;37.17
9723;DHT22;4900;49.306;8.500;2022-07-03T07:15:14;32.27;37.07
9723;DHT22;4900;49.306;8.500;2022-07-03T07:18:18;32.53;36.41
9723;DHT22;4900;49.306;8.500;2022-07-03T07:21:21;32.67;36.23
9723;DHT22;4900;49.306;8.500;2022-07-03T07:24:25;32.99;36.08
9723;DHT22;4900;49.306;8.500;2022-07-03T07:27:28;33.23;35.71
9723;DHT22;4900;49.306;8.500;2022-07-03T07:30:31;33.58;35.33
9723;DHT22;4900;49.306;8.500;2022-07-03T07:33:35;33.95;35.03
9723;DHT22;4900;49.306;8.500;2022-07-03T07:36:38;34.16;34.43
9723;DHT22;4900;49.306;8.500;2022-07-03T07:39:42;34.64;33.92
9723;DHT22;4900;49.306;8.500;2022-07-03T07:42:44;35.02;33.34
9723;DHT22;4900;49.306;8.500;2022-07-03T07:45:48;35.02;33.23
9723;DHT22;4900;49.306;8.500;2022-07-03T07:48:51;34.91;33.16
9723;DHT22;4900;49.306;8.500;2022-07-03T07:51:55;34.42;33.71
9723;DHT22;4900;49.306;8.500;2022-07-03T07:54:58;34.25;33.68
9723;DHT22;4900;49.306;8.500;2022-07-03T07:58:02;34.25;33.74
9723;DHT22;4900;49.306;8.500;2022-07-03T08:01:05;34.40;33.45
9723;DHT22;4900;49.306;8.500;2022-07-03T08:04:27;34.26;33.44
9723;DHT22;4900;49.306;8.500;2022-07-03T08:07:49;34.90;32.64
9723;DHT22;4900;49.306;8.500;2022-07-03T08:10:51;34.60;32.80
9723;DHT22;4900;49.306;8.500;2022-07-03T08:13:54;34.50;32.69
9723;DHT22;4900;49.306;8.500;2022-07-03T08:16:58;35.08;32.51
9723;DHT22;4900;49.306;8.500;2022-07-03T08:20:01;35.15;32.68
9723;DHT22;4900;49.306;8.500;2022-07-03T08:23:05;35.09;32.51
9723;DHT22;4900;49.306;8.500;2022-07-03T08:26:08;35.42;31.37
9723;DHT22;4900;49.306;8.500;2022-07-03T08:29:11;35.28;31.39
9723;DHT22;4900;49.306;8.500;2022-07-03T08:32:14;35.66;31.36
9723;DHT22;4900;49.306;8.500;2022-07-03T08:35:17;36.20;31.37
9723;DHT22;4900;49.306;8.500;2022-07-03T08:38:26;35.43;32.02
9723;DHT22;4900;49.306;8.500;2022-07-03T08:41:33;35.64;31.65
9723;DHT22;4900;49.306;8.500;2022-07-03T08:44:40;35.87;31.51
9723;DHT22;4900;49.306;8.500;2022-07-03T08:47:45;36.17;30.93
9723;DHT22;4900;49.306;8.500;2022-07-03T08:50:50;36.49;30.13
9723;DHT22;4900;49.306;8.500;2022-07-03T08:53:54;36.75;30.38
9723;DHT22;4900;49.306;8.500;2022-07-03T08:56:57;37.35;29.63
9723;DHT22;4900;49.306;8.500;2022-07-03T09:00:06;37.79;29.20
9723;DHT22;4900;49.306;8.500;2022-07-03T09:03:10;38.45;28.36
9723;DHT22;4900;49.306;8.500;2022-07-03T09:06:13;39.18;28.20
9723;DHT22;4900;49.306;8.500;2022-07-03T09:09:16;39.68;27.14
9723;DHT22;4900;49.306;8.500;2022-07-03T09:12:19;40.03;26.86
9723;DHT22;4900;49.306;8.500;2022-07-03T09:15:23;40.04;26.36
9723;DHT22;4900;49.306;8.500;2022-07-03T09:18:41;40.33;25.80
9723;DHT22;4900;49.306;8.500;2022-07-03T09:21:44;40.68;25.69
9723;DHT22;4900;49.306;8.500;2022-07-03T09:24:50;40.58;25.47
9723;DHT22;4900;49.306;8.500;2022-07-03T09:27:53;40.65;24.96
9723;DHT22;4900;49.306;8.500;2022-07-03T09:31:00;40.86;24.59
9723;DHT22;4900;49.306;8.500;2022-07-03T09:34:06;41.61;24.00
9723;DHT22;4900;49.306;8.500;2022-07-03T09:37:16;41.33;23.97
9723;DHT22;4900;49.306;8.500;2022-07-03T09:40:45;41.75;23.65
9723;DHT22;4900;49.306;8.500;2022-07-03T09:43:49;41.71;23.44
9723;DHT22;4900;49.306;8.500;2022-07-03T09:47:05;42.12;23.00
9723;DHT22;4900;49.306;8.500;2022-07-03T09:50:09;42.12;22.85
9723;DHT22;4900;49.306;8.500;2022-07-03T09:53:15;42.64;22.43
9723;DHT22;4900;49.306;8.500;2022-07-03T09:56:19;42.60;22.37
9723;DHT22;4900;49.306;8.500;2022-07-03T09:59:23;42.58;22.10
9723;DHT22;4900;49.306;8.500;2022-07-03T10:02:26;42.54;21.94
9723;DHT22;4900;49.306;8.500;2022-07-03T10:05:30;42.94;21.73
9723;DHT22;4900;49.306;8.500;2022-07-03T10:08:33;43.10;21.15
9723;DHT22;4900;49.306;8.500;2022-07-03T10:11:38;43.17;21.38
9723;DHT22;4900;49.306;8.500;2022-07-03T10:14:41;43.64;21.02
9723;DHT22;4900;49.306;8.500;2022-07-03T10:17:50;43.87;20.56
9723;DHT22;4900;49.306;8.500;2022-07-03T10:20:57;44.13;20.55
9723;DHT22;4900;49.306;8.500;2022-07-03T10:24:01;43.88;20.60
9723;DHT22;4900;49.306;8.500;2022-07-03T10:27:04;44.11;19.99
9723;DHT22;4900;49.306;8.500;2022-07-03T10:30:08;44.50;19.62
9723;DHT22;4900;49.306;8.500;2022-07-03T10:33:12;43.95;20.36
9723;DHT22;4900;49.306;8.500;2022-07-03T10:36:15;44.25;20.20
9723;DHT22;4900;49.306;8.500;2022-07-03T10:39:27;44.08;20.27
9723;DHT22;4900;49.306;8.500;2022-07-03T10:42:34;43.87;20.03
9723;DHT22;4900;49.306;8.500;2022-07-03T10:46:17;44.25;19.80
9723;DHT22;4900;49.306;8.500;2022-07-03T10:49:20;44.47;19.59
9723;DHT22;4900;49.306;8.500;2022-07-03T10:52:24;44.88;19.13
9723;DHT22;4900;49.306;8.500;2022-07-03T10:55:27;44.63;19.21
9723;DHT22;4900;49.306;8.500;2022-07-03T10:58:30;44.91;19.08
9723;DHT22;4900;49.306;8.500;2022-07-03T11:01:33;45.00;18.75
9723;DHT22;4900;49.306;8.500;2022-07-03T11:08:05;45.56;18.50
9723;DHT22;4900;49.306;8.500;2022-07-03T11:11:45;45.35;18.60
9723;DHT22;4900;49.306;8.500;2022-07-03T11:18:39;45.54;18.66
9723;DHT22;4900;49.306;8.500;2022-07-03T11:21:48;45.64;18.71
9723;DHT22;4900;49.306;8.500;2022-07-03T11:24:54;45.93;18.48
9723;DHT22;4900;49.306;8.500;2022-07-03T11:27:58;45.79;18.67
9723;DHT22;4900;49.306;8.500;2022-07-03T11:34:19;46.18;18.68
9723;DHT22;4900;49.306;8.500;2022-07-03T11:37:23;46.17;18.72
9723;DHT22;4900;49.306;8.500;2022-07-03T11:40:27;45.94;18.97
9723;DHT22;4900;49.306;8.500;2022-07-03T11:43:31;46.01;19.19
9723;DHT22;4900;49.306;8.500;2022-07-03T11:46:36;46.66;18.64
9723;DHT22;4900;49.306;8.500;2022-07-03T11:49:47;46.63;18.28
9723;DHT22;4900;49.306;8.500;2022-07-03T11:52:51;46.79;18.45
9723;DHT22;4900;49.306;8.500;2022-07-03T11:56:05;46.32;18.86
9723;DHT22;4900;49.306;8.500;2022-07-03T11:59:08;46.99;18.38
9723;DHT22;4900;49.306;8.500;2022-07-03T12:02:12;46.82;18.58
9723;DHT22;4900;49.306;8.500;2022-07-03T12:05:14;47.33;17.71
9723;DHT22;4900;49.306;8.500;2022-07-03T12:08:23;47.11;17.99
9723;DHT22;4900;49.306;8.500;2022-07-03T12:11:26;46.96;18.21
9723;DHT22;4900;49.306;8.500;2022-07-03T12:14:50;47.13;18.45
9723;DHT22;4900;49.306;8.500;2022-07-03T12:17:53;46.99;17.77
9723;DHT22;4900;49.306;8.500;2022-07-03T12:21:04;47.38;17.24
9723;DHT22;4900;49.306;8.500;2022-07-03T12:24:14;47.52;17.05
9723;DHT22;4900;49.306;8.500;2022-07-03T12:27:17;47.72;17.70
9723;DHT22;4900;49.306;8.500;2022-07-03T12:30:22;47.85;17.89
9723;DHT22;4900;49.306;8.500;2022-07-03T12:33:27;48.05;17.67
9723;DHT22;4900;49.306;8.500;2022-07-03T12:36:31;48.05;17.53
9723;DHT22;4900;49.306;8.500;2022-07-03T12:39:48;48.06;17.17
9723;DHT22;4900;49.306;8.500;2022-07-03T12:42:53;48.24;17.17
9723;DHT22;4900;49.306;8.500;2022-07-03T12:45:56;47.73;17.57
9723;DHT22;4900;49.306;8.500;2022-07-03T12:49:08;48.28;17.40
9723;DHT22;4900;49.306;8.500;2022-07-03T12:52:12;48.37;17.53
9723;DHT22;4900;49.306;8.500;2022-07-03T12:55:26;48.16;17.49
9723;DHT22;4900;49.306;8.500;2022-07-03T12:58:29;47.75;17.37
9723;DHT22;4900;49.306;8.500;2022-07-03T13:02:03;48.76;17.08
9723;DHT22;4900;49.306;8.500;2022-07-03T13:05:32;49.19;17.00
9723;DHT22;4900;49.306;8.500;2022-07-03T13:09:10;49.01;17.09
9723;DHT22;4900;49.306;8.500;2022-07-03T13:12:21;48.92;17.04
9723;DHT22;4900;49.306;8.500;2022-07-03T13:15:29;49.07;16.87
9723;DHT22;4900;49.306;8.500;2022-07-03T13:18:33;49.22;16.76
9723;DHT22;4900;49.306;8.500;2022-07-03T13:21:36;49.37;16.73
9723;DHT22;4900;49.306;8.500;2022-07-03T13:24:39;49.27;16.68
9723;DHT22;4900;49.306;8.500;2022-07-03T13:27:43;49.06;16.88
9723;DHT22;4900;49.306;8.500;2022-07-03T13:30:47;48.54;17.12
9723;DHT22;4900;49.306;8.500;2022-07-03T13:33:50;47.89;17.56
9723;DHT22;4900;49.306;8.500;2022-07-03T13:36:53;47.64;17.76
9723;DHT22;4900;49.306;8.500;2022-07-03T13:39:57;47.92;17.39
9723;DHT22;4900;49.306;8.500;2022-07-03T13:43:00;48.47;17.29
9723;DHT22;4900;49.306;8.500;2022-07-03T13:46:03;48.46;17.49
9723;DHT22;4900;49.306;8.500;2022-07-03T13:49:06;48.33;17.76
9723;DHT22;4900;49.306;8.500;2022-07-03T13:52:09;47.65;18.10
9723;DHT22;4900;49.306;8.500;2022-07-03T13:55:12;47.49;17.64
9723;DHT22;4900;49.306;8.500;2022-07-03T13:58:15;46.83;17.77
9723;DHT22;4900;49.306;8.500;2022-07-03T14:01:19;46.41;17.94
9723;DHT22;4900;49.306;8.500;2022-07-03T14:04:23;46.42;17.95
9723;DHT22;4900;49.306;8.500;2022-07-03T14:07:26;46.55;18.27
9723;DHT22;4900;49.306;8.500;2022-07-03T14:10:28;46.13;18.19
9723;DHT22;4900;49.306;8.500;2022-07-03T14:13:31;45.36;18.65
9723;DHT22;4900;49.306;8.500;2022-07-03T14:16:35;44.70;19.41
9723;DHT22;4900;49.306;8.500;2022-07-03T14:19:38;44.25;19.85
9723;DHT22;4900;49.306;8.500;2022-07-03T14:22:41;44.23;19.82
9723;DHT22;4900;49.306;8.500;2022-07-03T14:25:44;44.70;19.62
9723;DHT22;4900;49.306;8.500;2022-07-03T14:28:47;44.85;19.48
9723;DHT22;4900;49.306;8.500;2022-07-03T14:32:09;44.81;19.47
9723;DHT22;4900;49.306;8.500;2022-07-03T14:35:31;45.56;19.26
9723;DHT22;4900;49.306;8.500;2022-07-03T14:38:35;45.68;19.09
9723;DHT22;4900;49.306;8.500;2022-07-03T14:41:38;45.90;18.86
9723;DHT22;4900;49.306;8.500;2022-07-03T14:44:41;46.29;18.78
9723;DHT22;4900;49.306;8.500;2022-07-03T14:47:44;46.70;18.95
9723;DHT22;4900;49.306;8.500;2022-07-03T14:50:48;47.04;18.54
9723;DHT22;4900;49.306;8.500;2022-07-03T14:53:52;47.38;18.50
9723;DHT22;4900;49.306;8.500;2022-07-03T14:56:57;47.55;18.00
9723;DHT22;4900;49.306;8.500;2022-07-03T15:00:09;47.66;17.89
9723;DHT22;4900;49.306;8.500;2022-07-03T15:03:33;47.83;17.54
9723;DHT22;4900;49.306;8.500;2022-07-03T15:06:36;47.69;17.04
9723;DHT22;4900;49.306;8.500;2022-07-03T15:09:46;47.93;17.43
9723;DHT22;4900;49.306;8.500;2022-07-03T15:12:53;48.38;17.30
9723;DHT22;4900;49.306;8.500;2022-07-03T15:15:56;48.30;17.15
9723;DHT22;4900;49.306;8.500;2022-07-03T15:19:00;48.13;17.44
9723;DHT22;4900;49.306;8.500;2022-07-03T15:22:04;48.19;17.21
9723;DHT22;4900;49.306;8.500;2022-07-03T15:25:09;48.16;16.98
9723;DHT22;4900;49.306;8.500;2022-07-03T15:28:14;48.09;17.11
9723;DHT22;4900;49.306;8.500;2022-07-03T15:31:17;48.23;17.05
9723;DHT22;4900;49.306;8.500;2022-07-03T15:34:20;48.24;17.01
9723;DHT22;4900;49.306;8.500;2022-07-03T15:37:44;48.42;17.08
9723;DHT22;4900;49.306;8.500;2022-07-03T15:40:53;48.12;17.30
9723;DHT22;4900;49.306;8.500;2022-07-03T15:47:32;47.81;17.54
9723;DHT22;4900;49.306;8.500;2022-07-03T15:50:51;47.68;17.63
9723;DHT22;4900;49.306;8.500;2022-07-03T15:53:57;47.72;17.44
9723;DHT22;4900;49.306;8.500;2022-07-03T15:57:03;47.71;17.35
9723;DHT22;4900;49.306;8.500;2022-07-03T16:00:10;47.78;17.41
9723;DHT22;4900;49.306;8.500;2022-07-03T16:03:35;47.69;17.50
9723;DHT22;4900;49.306;8.500;2022-07-03T16:06:41;47.42;17.49
9723;DHT22;4900;49.306;8.500;2022-07-03T16:09:45;47.06;17.63
9723;DHT22;4900;49.306;8.500;2022-07-03T16:12:49;46.52;17.84
9723;DHT22;4900;49.306;8.500;2022-07-03T16:15:57;46.49;18.01
9723;DHT22;4900;49.306;8.500;2022-07-03T16:19:03;46.49;18.17
9723;DHT22;4900;49.306;8.500;2022-07-03T16:22:07;46.63;18.03
9723;DHT22;4900;49.306;8.500;2022-07-03T16:25:11;46.75;18.15
9723;DHT22;4900;49.306;8.500;2022-07-03T16:28:14;46.59;18.05
9723;DHT22;4900;49.306;8.500;2022-07-03T16:31:26;46.75;18.20
9723;DHT22;4900;49.306;8.500;2022-07-03T16:34:34;46.76;18.12
9723;DHT22;4900;49.306;8.500;2022-07-03T16:37:55;46.51;18.16
9723;DHT22;4900;49.306;8.500;2022-07-03T16:41:01;46.32;18.16
9723;DHT22;4900;49.306;8.500;2022-07-03T16:44:06;46.41;18.10
9723;DHT22;4900;49.306;8.500;2022-07-03T16:47:11;46.25;18.21
9723;DHT22;4900;49.306;8.500;2022-07-03T16:50:18;46.23;18.37
9723;DHT22;4900;49.306;8.500;2022-07-03T16:53:22;46.27;18.27
9723;DHT22;4900;49.306;8.500;2022-07-03T16:56:26;46.25;18.27
9723;DHT22;4900;49.306;8.500;2022-07-03T16:59:30;46.08;18.41
9723;DHT22;4900;49.306;8.500;2022-07-03T17:02:35;45.93;18.27
9723;DHT22;4900;49.306;8.500;2022-07-03T17:05:38;45.60;18.55
9723;DHT22;4900;49.306;8.500;2022-07-03T17:08:41;45.36;18.65
9723;DHT22;4900;49.306;8.500;2022-07-03T17:11:45;44.95;18.88
9723;DHT22;4900;49.306;8.500;2022-07-03T17:14:48;44.67;19.18
9723;DHT22;4900;49.306;8.500;2022-07-03T17:18:03;44.47;19.43
9723;DHT22;4900;49.306;8.500;2022-07-03T17:21:07;44.11;19.70
9723;DHT22;4900;49.306;8.500;2022-07-03T17:24:11;43.70;19.87
9723;DHT22;4900;49.306;8.500;2022-07-03T17:27:17;43.07;20.23
9723;DHT22;4900;49.306;8.500;2022-07-03T17:30:43;42.32;20.89
9723;DHT22;4900;49.306;8.500;2022-07-03T17:33:51;42.25;21.26
9723;DHT22;4900;49.306;8.500;2022-07-03T17:36:55;42.23;21.19
9723;DHT22;4900;49.306;8.500;2022-07-03T17:40:00;42.19;21.19
9723;DHT22;4900;49.306;8.500;2022-07-03T17:43:04;42.05;21.42
9723;DHT22;4900;49.306;8.500;2022-07-03T17:46:08;42.02;21.36
9723;DHT22;4900;49.306;8.500;2022-07-03T17:49:13;41.93;21.42
9723;DHT22;4900;49.306;8.500;2022-07-03T17:52:17;41.85;21.67
9723;DHT22;4900;49.306;8.500;2022-07-03T17:55:22;41.75;21.85
9723;DHT22;4900;49.306;8.500;2022-07-03T17:58:27;41.64;22.04
9723;DHT22;4900;49.306;8.500;2022-07-03T18:01:31;41.47;21.95
9723;DHT22;4900;49.306;8.500;2022-07-03T18:04:34;41.31;22.14
9723;DHT22;4900;49.306;8.500;2022-07-03T18:08:10;41.23;22.45
9723;DHT22;4900;49.306;8.500;2022-07-03T18:11:21;41.00;22.75
9723;DHT22;4900;49.306;8.500;2022-07-03T18:14:44;40.79;23.54
9723;DHT22;4900;49.306;8.500;2022-07-03T18:17:52;40.58;23.75
9723;DHT22;4900;49.306;8.500;2022-07-03T18:20:55;40.37;23.91
9723;DHT22;4900;49.306;8.500;2022-07-03T18:24:00;40.16;24.38
9723;DHT22;4900;49.306;8.500;2022-07-03T18:27:12;40.06;24.55
9723;DHT22;4900;49.306;8.500;2022-07-03T18:30:17;39.89;24.43
9723;DHT22;4900;49.306;8.500;2022-07-03T18:33:22;39.64;24.36
9723;DHT22;4900;49.306;8.500;2022-07-03T18:36:28;39.18;24.64
9723;DHT22;4900;49.306;8.500;2022-07-03T18:39:33;38.75;24.92
9723;DHT22;4900;49.306;8.500;2022-07-03T18:42:37;38.13;25.55
9723;DHT22;4900;49.306;8.500;2022-07-03T18:45:42;37.59;26.47
9723;DHT22;4900;49.306;8.500;2022-07-03T18:48:46;36.97;27.18
9723;DHT22;4900;49.306;8.500;2022-07-03T18:51:57;36.40;27.59
9723;DHT22;4900;49.306;8.500;2022-07-03T18:58:43;35.35;29.83
9723;DHT22;4900;49.306;8.500;2022-07-03T19:01:47;34.95;30.29
9723;DHT22;4900;49.306;8.500;2022-07-03T19:04:54;34.52;30.92
9723;DHT22;4900;49.306;8.500;2022-07-03T19:08:02;34.16;31.78
9723;DHT22;4900;49.306;8.500;2022-07-03T19:11:07;33.78;32.39
9723;DHT22;4900;49.306;8.500;2022-07-03T19:14:12;33.45;33.42
9723;DHT22;4900;49.306;8.500;2022-07-03T19:17:17;33.11;34.24
9723;DHT22;4900;49.306;8.500;2022-07-03T19:20:22;32.75;34.96
9723;DHT22;4900;49.306;8.500;2022-07-03T19:23:26;32.44;35.43
9723;DHT22;4900;49.306;8.500;2022-07-03T19:26:29;32.19;35.93
9723;DHT22;4900;49.306;8.500;2022-07-03T19:29:33;31.96;36.14
9723;DHT22;4900;49.306;8.500;2022-07-03T19:32:36;31.69;36.75
9723;DHT22;4900;49.306;8.500;2022-07-03T19:35:39;31.48;37.13
9723;DHT22;4900;49.306;8.500;2022-07-03T19:38:42;31.26;37.42
9723;DHT22;4900;49.306;8.500;2022-07-03T19:41:45;31.00;38.24
9723;DHT22;4900;49.306;8.500;2022-07-03T19:44:48;30.78;38.83
9723;DHT22;4900;49.306;8.500;2022-07-03T19:47:51;30.58;39.42
9723;DHT22;4900;49.306;8.500;2022-07-03T19:50:54;30.37;40.19
9723;DHT22;4900;49.306;8.500;2022-07-03T19:53:57;30.17;40.89
9723;DHT22;4900;49.306;8.500;2022-07-03T19:57:00;29.96;41.49
9723;DHT22;4900;49.306;8.500;2022-07-03T20:00:08;29.76;42.09
9723;DHT22;4900;49.306;8.500;2022-07-03T20:03:11;29.54;42.46
9723;DHT22;4900;49.306;8.500;2022-07-03T20:06:15;29.34;42.99
9723;DHT22;4900;49.306;8.500;2022-07-03T20:09:19;29.17;43.93
9723;DHT22;4900;49.306;8.500;2022-07-03T20:12:25;29.00;44.68
9723;DHT22;4900;49.306;8.500;2022-07-03T20:15:29;28.83;46.13
9723;DHT22;4900;49.306;8.500;2022-07-03T20:18:34;28.69;46.13
9723;DHT22;4900;49.306;8.500;2022-07-03T20:21:37;28.51;46.32
9723;DHT22;4900;49.306;8.500;2022-07-03T20:24:40;28.40;46.47
9723;DHT22;4900;49.306;8.500;2022-07-03T20:27:43;28.24;46.60
9723;DHT22;4900;49.306;8.500;2022-07-03T20:30:46;28.10;47.06
9723;DHT22;4900;49.306;8.500;2022-07-03T20:33:49;27.95;47.76
9723;DHT22;4900;49.306;8.500;2022-07-03T20:36:53;27.81;48.82
9723;DHT22;4900;49.306;8.500;2022-07-03T20:39:57;27.68;49.16
9723;DHT22;4900;49.306;8.500;2022-07-03T20:43:00;27.53;49.82
9723;DHT22;4900;49.306;8.500;2022-07-03T20:46:04;27.26;50.00